sensor_id;sensor_type;location;lat;lon;timestamp;pressure;altitude;pressure_sealevel;temperature;humidity
10127;BME280;13080;42.608;23.362;2022-11-11T00:00:16;93808.19;;;7.28;99.78
10127;BME280;13080;42.608;23.362;2022-11-11T00:02:43;93804.53;;;7.24;100.00
10127;BME280;13080;42.608;23.362;2022-11-11T00:05:10;93801.88;;;7.24;100.00
10127;BME280;13080;42.608;23.362;2022-11-11T00:07:36;93808.13;;;7.34;100.00
10127;BME280;13080;42.608;23.362;2022-11-11T00:10:06;93801.22;;;7.33;100.00
10127;BME280;13080;42.608;23.362;2022-11-11T00:12:33;93815.81;;;7.35;100.00
10127;BME280;13080;42.608;23.362;2022-11-11T00:14:59;93806.84;;;7.31;100.00
10127;BME280;13080;42.608;23.362;2022-11-11T00:17:26;93801.91;;;7.43;100.00
10127;BME280;13080;42.608;23.362;2022-11-11T00:20:10;93798.47;;;7.43;100.00
10127;BME280;13080;42.608;23.362;2022-11-11T00:22:55;93805.47;;;7.34;100.00
10127;BME280;13080;42.608;23.362;2022-11-11T00:25:40;93805.53;;;7.28;100.00
10127;BME280;13080;42.608;23.362;2022-11-11T00:28:07;93810.69;;;7.20;100.00
10127;BME280;13080;42.608;23.362;2022-11-11T00:30:34;93822.09;;;7.20;100.00
10127;BME280;13080;42.608;23.362;2022-11-11T00:33:01;93808.66;;;7.12;100.00
10127;BME280;13080;42.608;23.362;2022-11-11T00:35:27;93808.94;;;7.10;100.00
10127;BME280;13080;42.608;23.362;2022-11-11T00:38:13;93806.59;;;7.08;100.00
10127;BME280;13080;42.608;23.362;2022-11-11T00:41:02;93819.78;;;7.14;100.00
10127;BME280;13080;42.608;23.362;2022-11-11T00:43:29;93821.81;;;6.98;100.00
10127;BME280;13080;42.608;23.362;2022-11-11T00:45:55;93814.38;;;7.00;100.00
10127;BME280;13080;42.608;23.362;2022-11-11T00:48:42;93815.09;;;7.05;100.00
10127;BME280;13080;42.608;23.362;2022-11-11T00:51:27;93804.88;;;6.94;100.00
10127;BME280;13080;42.608;23.362;2022-11-11T00:53:54;93812.00;;;6.98;100.00
10127;BME280;13080;42.608;23.362;2022-11-11T00:56:22;93806.44;;;6.95;100.00
10127;BME280;13080;42.608;23.362;2022-11-11T00:58:50;93806.06;;;7.06;100.00
10127;BME280;13080;42.608;23.362;2022-11-11T01:01:17;93806.06;;;7.06;100.00
10127;BME280;13080;42.608;23.362;2022-11-11T01:03:44;93804.72;;;7.09;100.00
10127;BME280;13080;42.608;23.362;2022-11-11T01:06:11;93798.97;;;7.02;100.00
10127;BME280;13080;42.608;23.362;2022-11-11T01:08:39;93801.63;;;7.02;100.00
10127;BME280;13080;42.608;23.362;2022-11-11T01:11:11;93797.03;;;7.07;100.00
10127;BME280;13080;42.608;23.362;2022-11-11T01:13:40;93802.00;;;7.14;100.00
10127;BME280;13080;42.608;23.362;2022-11-11T01:16:09;93795.56;;;7.20;100.00
10127;BME280;13080;42.608;23.362;2022-11-11T01:18:37;93800.88;;;7.20;100.00
10127;BME280;13080;42.608;23.362;2022-11-11T01:21:05;93795.56;;;7.20;100.00
10127;BME280;13080;42.608;23.362;2022-11-11T01:23:35;93795.91;;;7.14;100.00
10127;BME280;13080;42.608;23.362;2022-11-11T01:26:04;93797.47;;;7.15;100.00
10127;BME280;13080;42.608;23.362;2022-11-11T01:28:32;93790.16;;;7.06;100.00
10127;BME280;13080;42.608;23.362;2022-11-11T01:31:01;93789.56;;;7.10;100.00
10127;BME280;13080;42.608;23.362;2022-11-11T01:33:28;93797.59;;;7.04;100.00
10127;BME280;13080;42.608;23.362;2022-11-11T01:35:55;93801.63;;;7.02;100.00
10127;BME280;13080;42.608;23.362;2022-11-11T01:38:22;93795.16;;;7.08;100.00
10127;BME280;13080;42.608;23.362;2022-11-11T01:40:48;93796.00;;;7.03;100.00
10127;BME280;13080;42.608;23.362;2022-11-11T01:43:21;93788.06;;;7.03;100.00
10127;BME280;13080;42.608;23.362;2022-11-11T01:45:54;93782.88;;;6.93;100.00
10127;BME280;13080;42.608;23.362;2022-11-11T01:48:28;93785.22;;;6.95;100.00
10127;BME280;13080;42.608;23.362;2022-11-11T01:51:19;93786.03;;;6.95;100.00
10127;BME280;13080;42.608;23.362;2022-11-11T01:53:48;93786.31;;;6.94;100.00
10127;BME280;13080;42.608;23.362;2022-11-11T01:56:17;93793.75;;;6.92;100.00
10127;BME280;13080;42.608;23.362;2022-11-11T01:58:45;93800.09;;;6.96;100.00
10127;BME280;13080;42.608;23.362;2022-11-11T02:01:12;93802.34;;;6.83;100.00
10127;BME280;13080;42.608;23.362;2022-11-11T02:03:40;93797.53;;;6.85;100.00
10127;BME280;13080;42.608;23.362;2022-11-11T02:06:28;93801.91;;;7.00;100.00
10127;BME280;13080;42.608;23.362;2022-11-11T02:08:55;93798.16;;;7.01;100.00
10127;BME280;13080;42.608;23.362;2022-11-11T02:11:23;93818.31;;;7.02;100.00
10127;BME280;13080;42.608;23.362;2022-11-11T02:14:08;93804.22;;;7.07;100.00
10127;BME280;13080;42.608;23.362;2022-11-11T02:16:55;93802.63;;;7.06;100.00
10127;BME280;13080;42.608;23.362;2022-11-11T02:19:36;93804.03;;;6.98;100.00
10127;BME280;13080;42.608;23.362;2022-11-11T02:22:07;93810.78;;;6.91;100.00
10127;BME280;13080;42.608;23.362;2022-11-11T02:24:39;93808.78;;;6.77;100.00
10127;BME280;13080;42.608;23.362;2022-11-11T02:27:09;93803.19;;;6.79;100.00
10127;BME280;13080;42.608;23.362;2022-11-11T02:29:37;93812.81;;;6.70;100.00
10127;BME280;13080;42.608;23.362;2022-11-11T02:32:05;93808.03;;;6.72;100.00
10127;BME280;13080;42.608;23.362;2022-11-11T02:34:32;93807.31;;;6.90;100.00
10127;BME280;13080;42.608;23.362;2022-11-11T02:37:02;93807.09;;;6.86;100.00
10127;BME280;13080;42.608;23.362;2022-11-11T02:39:30;93799.97;;;6.82;100.00
10127;BME280;13080;42.608;23.362;2022-11-11T02:42:01;93801.34;;;6.79;100.00
10127;BME280;13080;42.608;23.362;2022-11-11T02:44:35;93804.72;;;6.85;100.00
10127;BME280;13080;42.608;23.362;2022-11-11T02:47:02;93816.34;;;6.89;100.00
10127;BME280;13080;42.608;23.362;2022-11-11T02:49:29;93806.44;;;6.95;100.00
10127;BME280;13080;42.608;23.362;2022-11-11T02:51:55;93812.94;;;7.07;100.00
10127;BME280;13080;42.608;23.362;2022-11-11T02:54:22;93805.66;;;7.18;100.00
10127;BME280;13080;42.608;23.362;2022-11-11T02:56:49;93809.19;;;7.14;100.00
10127;BME280;13080;42.608;23.362;2022-11-11T02:59:37;93816.88;;;7.15;100.00
10127;BME280;13080;42.608;23.362;2022-11-11T03:02:05;93809.34;;;7.22;100.00
10127;BME280;13080;42.608;23.362;2022-11-11T03:04:32;93810.75;;;7.15;100.00
10127;BME280;13080;42.608;23.362;2022-11-11T03:06:59;93813.00;;;7.26;100.00
10127;BME280;13080;42.608;23.362;2022-11-11T03:09:26;93807.84;;;7.35;100.00
10127;BME280;13080;42.608;23.362;2022-11-11T03:11:52;93808.81;;;7.44;100.00
10127;BME280;13080;42.608;23.362;2022-11-11T03:14:19;93807.72;;;7.64;100.00
10127;BME280;13080;42.608;23.362;2022-11-11T03:16:47;93809.09;;;7.81;100.00
10127;BME280;13080;42.608;23.362;2022-11-11T03:19:32;93818.44;;;7.97;100.00
10127;BME280;13080;42.608;23.362;2022-11-11T03:21:59;93811.88;;;8.08;100.00
10127;BME280;13080;42.608;23.362;2022-11-11T03:24:25;93815.63;;;8.07;100.00
10127;BME280;13080;42.608;23.362;2022-11-11T03:27:13;93810.44;;;8.16;100.00
10127;BME280;13080;42.608;23.362;2022-11-11T03:29:39;93809.31;;;8.36;100.00
10127;BME280;13080;42.608;23.362;2022-11-11T03:32:07;93810.50;;;8.30;100.00
10127;BME280;13080;42.608;23.362;2022-11-11T03:34:34;93814.00;;;8.44;100.00
10127;BME280;13080;42.608;23.362;2022-11-11T03:37:01;93811.25;;;8.49;100.00
10127;BME280;13080;42.608;23.362;2022-11-11T03:39:45;93807.31;;;8.61;100.00
10127;BME280;13080;42.608;23.362;2022-11-11T03:42:12;93808.28;;;8.51;100.00
10127;BME280;13080;42.608;23.362;2022-11-11T03:44:39;93802.31;;;8.59;100.00
10127;BME280;13080;42.608;23.362;2022-11-11T03:47:07;93806.94;;;8.67;100.00
10127;BME280;13080;42.608;23.362;2022-11-11T03:49:34;93807.03;;;8.62;100.00
10127;BME280;13080;42.608;23.362;2022-11-11T03:52:00;93803.34;;;8.77;100.00
10127;BME280;13080;42.608;23.362;2022-11-11T03:54:27;93811.88;;;8.74;100.00
10127;BME280;13080;42.608;23.362;2022-11-11T03:56:54;93810.91;;;8.70;100.00
10127;BME280;13080;42.608;23.362;2022-11-11T03:59:41;93812.75;;;8.69;100.00
10127;BME280;13080;42.608;23.362;2022-11-11T04:02:11;93809.81;;;8.71;100.00
10127;BME280;13080;42.608;23.362;2022-11-11T04:04:55;93821.72;;;8.60;100.00
10127;BME280;13080;42.608;23.362;2022-11-11T04:07:40;93818.47;;;8.63;100.00
10127;BME280;13080;42.608;23.362;2022-11-11T04:10:25;93811.97;;;8.55;100.00
10127;BME280;13080;42.608;23.362;2022-11-11T04:12:52;93807.41;;;8.56;100.00
10127;BME280;13080;42.608;23.362;2022-11-11T04:15:36;93811.41;;;8.39;100.00
10127;BME280;13080;42.608;23.362;2022-11-11T04:18:21;93813.13;;;8.49;100.00
10127;BME280;13080;42.608;23.362;2022-11-11T04:21:08;93811.41;;;8.39;100.00
10127;BME280;13080;42.608;23.362;2022-11-11T04:23:49;93810.47;;;8.49;100.00
10127;BME280;13080;42.608;23.362;2022-11-11T04:26:16;93806.38;;;8.38;100.00
10127;BME280;13080;42.608;23.362;2022-11-11T04:28:41;93814.06;;;8.39;100.00
10127;BME280;13080;42.608;23.362;2022-11-11T04:31:25;93809.28;;;8.41;100.00
10127;BME280;13080;42.608;23.362;2022-11-11T04:33:54;93817.94;;;8.47;100.00
10127;BME280;13080;42.608;23.362;2022-11-11T04:36:20;93820.31;;;8.48;100.00
10127;BME280;13080;42.608;23.362;2022-11-11T04:38:47;93828.28;;;8.48;100.00
10127;BME280;13080;42.608;23.362;2022-11-11T04:41:31;93834.63;;;8.52;100.00
10127;BME280;13080;42.608;23.362;2022-11-11T04:43:58;93835.16;;;8.68;100.00
10127;BME280;13080;42.608;23.362;2022-11-11T04:46:42;93832.88;;;8.62;100.00
10127;BME280;13080;42.608;23.362;2022-11-11T04:49:10;93827.19;;;8.49;100.00
10127;BME280;13080;42.608;23.362;2022-11-11T04:51:37;93827.91;;;8.55;100.00
10127;BME280;13080;42.608;23.362;2022-11-11T04:54:21;93826.75;;;8.61;100.00
10127;BME280;13080;42.608;23.362;2022-11-11T04:56:48;93831.09;;;8.57;100.00
10127;BME280;13080;42.608;23.362;2022-11-11T04:59:14;93839.19;;;8.66;100.00
10127;BME280;13080;42.608;23.362;2022-11-11T05:01:41;93828.81;;;8.64;100.00
10127;BME280;13080;42.608;23.362;2022-11-11T05:04:27;93832.38;;;8.60;100.00
10127;BME280;13080;42.608;23.362;2022-11-11T05:06:53;93831.47;;;8.64;100.00
10127;BME280;13080;42.608;23.362;2022-11-11T05:09:37;93830.75;;;8.59;100.00
10127;BME280;13080;42.608;23.362;2022-11-11T05:12:05;93831.88;;;8.58;100.00
10127;BME280;13080;42.608;23.362;2022-11-11T05:14:31;93825.63;;;8.48;100.00
10127;BME280;13080;42.608;23.362;2022-11-11T05:17:16;93824.34;;;8.46;100.00
10127;BME280;13080;42.608;23.362;2022-11-11T05:20:01;93826.22;;;8.45;100.00
10127;BME280;13080;42.608;23.362;2022-11-11T05:22:45;93836.66;;;8.42;100.00
10127;BME280;13080;42.608;23.362;2022-11-11T05:25:12;93836.94;;;8.40;100.00
10127;BME280;13080;42.608;23.362;2022-11-11T05:27:50;93845.47;;;8.37;100.00
10127;BME280;13080;42.608;23.362;2022-11-11T05:30:17;93853.00;;;8.49;100.00
10127;BME280;13080;42.608;23.362;2022-11-11T05:32:45;93853.50;;;8.51;100.00
10127;BME280;13080;42.608;23.362;2022-11-11T05:35:14;93862.88;;;8.48;100.00
10127;BME280;13080;42.608;23.362;2022-11-11T05:37:41;93865.03;;;8.46;100.00
10127;BME280;13080;42.608;23.362;2022-11-11T05:40:09;93866.78;;;8.70;100.00
10127;BME280;13080;42.608;23.362;2022-11-11T05:42:40;93866.47;;;8.71;100.00
10127;BME280;13080;42.608;23.362;2022-11-11T05:45:08;93859.22;;;8.77;100.00
10127;BME280;13080;42.608;23.362;2022-11-11T05:47:35;93867.69;;;8.79;100.00
10127;BME280;13080;42.608;23.362;2022-11-11T05:50:02;93877.47;;;8.84;100.00
10127;BME280;13080;42.608;23.362;2022-11-11T05:52:30;93880.31;;;8.87;100.00
10127;BME280;13080;42.608;23.362;2022-11-11T05:54:57;93875.25;;;8.72;100.00
10127;BME280;13080;42.608;23.362;2022-11-11T05:57:24;93885.09;;;8.71;100.00
10127;BME280;13080;42.608;23.362;2022-11-11T05:59:50;93877.44;;;8.70;100.00
10127;BME280;13080;42.608;23.362;2022-11-11T06:02:17;93883.72;;;8.74;100.00
10127;BME280;13080;42.608;23.362;2022-11-11T06:04:45;93890.97;;;8.87;100.00
10127;BME280;13080;42.608;23.362;2022-11-11T06:07:12;93903.81;;;8.99;100.00
10127;BME280;13080;42.608;23.362;2022-11-11T06:09:40;93895.97;;;8.75;100.00
10127;BME280;13080;42.608;23.362;2022-11-11T06:12:07;93902.84;;;8.76;100.00
10127;BME280;13080;42.608;23.362;2022-11-11T06:14:33;93908.69;;;8.78;100.00
10127;BME280;13080;42.608;23.362;2022-11-11T06:17:00;93912.34;;;8.82;100.00
10127;BME280;13080;42.608;23.362;2022-11-11T06:19:27;93911.16;;;8.74;100.00
10127;BME280;13080;42.608;23.362;2022-11-11T06:21:53;93905.63;;;8.71;100.00
10127;BME280;13080;42.608;23.362;2022-11-11T06:24:23;93908.34;;;8.66;100.00
10127;BME280;13080;42.608;23.362;2022-11-11T06:26:53;93922.00;;;8.78;100.00
10127;BME280;13080;42.608;23.362;2022-11-11T06:29:19;93928.19;;;8.73;100.00
10127;BME280;13080;42.608;23.362;2022-11-11T06:31:46;93931.88;;;8.91;100.00
10127;BME280;13080;42.608;23.362;2022-11-11T06:34:13;93936.22;;;8.87;100.00
10127;BME280;13080;42.608;23.362;2022-11-11T06:36:40;93935.38;;;8.73;100.00
10127;BME280;13080;42.608;23.362;2022-11-11T06:39:06;93931.22;;;8.67;100.00
10127;BME280;13080;42.608;23.362;2022-11-11T06:41:33;93939.41;;;8.70;100.00
10127;BME280;13080;42.608;23.362;2022-11-11T06:44:01;93936.81;;;8.65;100.00
10127;BME280;13080;42.608;23.362;2022-11-11T06:46:28;93941.34;;;8.65;100.00
10127;BME280;13080;42.608;23.362;2022-11-11T06:48:54;93944.28;;;8.82;100.00
10127;BME280;13080;42.608;23.362;2022-11-11T06:51:21;93946.72;;;8.79;100.00
10127;BME280;13080;42.608;23.362;2022-11-11T06:53:48;93946.06;;;8.87;100.00
10127;BME280;13080;42.608;23.362;2022-11-11T06:56:15;93943.78;;;8.80;100.00
10127;BME280;13080;42.608;23.362;2022-11-11T06:58:41;93949.19;;;8.75;100.00
10127;BME280;13080;42.608;23.362;2022-11-11T07:01:11;93948.19;;;8.71;100.00
10127;BME280;13080;42.608;23.362;2022-11-11T07:03:38;93949.22;;;8.89;100.00
10127;BME280;13080;42.608;23.362;2022-11-11T07:06:05;93942.91;;;8.85;100.00
10127;BME280;13080;42.608;23.362;2022-11-11T07:08:32;93945.28;;;8.86;100.00
10127;BME280;13080;42.608;23.362;2022-11-11T07:10:59;93939.75;;;8.83;100.00
10127;BME280;13080;42.608;23.362;2022-11-11T07:13:26;93938.47;;;8.80;100.00
10127;BME280;13080;42.608;23.362;2022-11-11T07:15:53;93940.06;;;8.81;100.00
10127;BME280;13080;42.608;23.362;2022-11-11T07:18:21;93951.25;;;8.78;100.00
10127;BME280;13080;42.608;23.362;2022-11-11T07:20:48;93943.50;;;8.82;100.00
10127;BME280;13080;42.608;23.362;2022-11-11T07:23:14;93944.56;;;8.81;100.00
10127;BME280;13080;42.608;23.362;2022-11-11T07:25:42;93949.31;;;8.84;100.00
10127;BME280;13080;42.608;23.362;2022-11-11T07:28:09;93953.00;;;8.69;100.00
10127;BME280;13080;42.608;23.362;2022-11-11T07:30:36;93955.16;;;8.67;100.00
10127;BME280;13080;42.608;23.362;2022-11-11T07:33:03;93954.09;;;8.68;100.00
10127;BME280;13080;42.608;23.362;2022-11-11T07:35:31;93959.56;;;8.58;100.00
10127;BME280;13080;42.608;23.362;2022-11-11T07:37:57;93964.59;;;8.40;100.00
10127;BME280;13080;42.608;23.362;2022-11-11T07:40:24;93962.66;;;8.46;100.00
10127;BME280;13080;42.608;23.362;2022-11-11T07:42:51;93960.78;;;8.46;100.00
10127;BME280;13080;42.608;23.362;2022-11-11T07:45:17;93964.38;;;8.37;100.00
10127;BME280;13080;42.608;23.362;2022-11-11T07:47:44;93972.38;;;8.31;100.00
10127;BME280;13080;42.608;23.362;2022-11-11T07:50:11;93971.53;;;8.36;100.00
10127;BME280;13080;42.608;23.362;2022-11-11T07:52:40;93974.06;;;8.27;100.00
10127;BME280;13080;42.608;23.362;2022-11-11T07:55:07;93984.81;;;8.41;100.00
10127;BME280;13080;42.608;23.362;2022-11-11T07:57:34;93984.03;;;8.36;100.00
10127;BME280;13080;42.608;23.362;2022-11-11T08:00:04;93975.63;;;8.28;100.00
10127;BME280;13080;42.608;23.362;2022-11-11T08:02:31;93982.66;;;8.43;100.00
10127;BME280;13080;42.608;23.362;2022-11-11T08:04:57;93981.88;;;8.38;100.00
10127;BME280;13080;42.608;23.362;2022-11-11T08:07:24;93988.00;;;8.38;100.00
10127;BME280;13080;42.608;23.362;2022-11-11T08:09:52;93995.28;;;8.51;100.00
10127;BME280;13080;42.608;23.362;2022-11-11T08:12:19;93995.94;;;8.43;100.00
10127;BME280;13080;42.608;23.362;2022-11-11T08:15:04;93988.13;;;8.28;100.00
10127;BME280;13080;42.608;23.362;2022-11-11T08:17:35;93989.19;;;8.27;100.00
10127;BME280;13080;42.608;23.362;2022-11-11T08:20:03;93985.41;;;8.33;100.00
10127;BME280;13080;42.608;23.362;2022-11-11T08:22:35;93996.91;;;8.28;100.00
10127;BME280;13080;42.608;23.362;2022-11-11T08:25:04;94000.00;;;8.36;100.00
10127;BME280;13080;42.608;23.362;2022-11-11T08:27:31;94008.84;;;8.31;100.00
10127;BME280;13080;42.608;23.362;2022-11-11T08:29:59;94005.00;;;8.42;100.00
10127;BME280;13080;42.608;23.362;2022-11-11T08:32:25;94005.03;;;8.37;100.00
10127;BME280;13080;42.608;23.362;2022-11-11T08:34:52;94005.03;;;8.37;100.00
10127;BME280;13080;42.608;23.362;2022-11-11T08:37:19;94004.22;;;8.42;100.00
10127;BME280;13080;42.608;23.362;2022-11-11T08:39:45;94004.44;;;8.45;100.00
10127;BME280;13080;42.608;23.362;2022-11-11T08:42:14;94002.38;;;8.37;100.00
10127;BME280;13080;42.608;23.362;2022-11-11T08:44:40;94005.00;;;8.42;100.00
10127;BME280;13080;42.608;23.362;2022-11-11T08:47:07;94010.81;;;8.44;100.00
10127;BME280;13080;42.608;23.362;2022-11-11T08:49:34;94019.59;;;8.45;100.00
10127;BME280;13080;42.608;23.362;2022-11-11T08:52:01;94012.09;;;8.47;100.00
10127;BME280;13080;42.608;23.362;2022-11-11T08:54:27;94012.34;;;8.50;100.00
10127;BME280;13080;42.608;23.362;2022-11-11T08:56:55;94002.91;;;8.58;100.00
10127;BME280;13080;42.608;23.362;2022-11-11T08:59:23;94001.53;;;8.61;100.00
10127;BME280;13080;42.608;23.362;2022-11-11T09:01:49;94015.00;;;8.69;100.00
10127;BME280;13080;42.608;23.362;2022-11-11T09:04:16;94005.59;;;8.77;99.29
10127;BME280;13080;42.608;23.362;2022-11-11T09:06:43;93998.06;;;8.98;98.13
10127;BME280;13080;42.608;23.362;2022-11-11T09:09:12;93993.09;;;9.10;96.53
10127;BME280;13080;42.608;23.362;2022-11-11T09:11:39;93996.97;;;9.32;95.30
10127;BME280;13080;42.608;23.362;2022-11-11T09:14:05;93999.88;;;9.35;94.52
10127;BME280;13080;42.608;23.362;2022-11-11T09:16:34;93996.81;;;9.42;94.08
10127;BME280;13080;42.608;23.362;2022-11-11T09:19:00;93993.31;;;9.28;95.16
10127;BME280;13080;42.608;23.362;2022-11-11T09:21:27;93999.06;;;9.35;93.50
10127;BME280;13080;42.608;23.362;2022-11-11T09:23:54;94000.34;;;9.05;94.39
10127;BME280;13080;42.608;23.362;2022-11-11T09:26:21;94008.34;;;9.05;94.22
10127;BME280;13080;42.608;23.362;2022-11-11T09:28:47;93999.75;;;9.08;93.92
10127;BME280;13080;42.608;23.362;2022-11-11T09:31:14;93997.78;;;9.00;94.39
10127;BME280;13080;42.608;23.362;2022-11-11T09:33:42;94000.50;;;8.94;95.00
10127;BME280;13080;42.608;23.362;2022-11-11T09:36:09;94003.16;;;9.13;94.00
10127;BME280;13080;42.608;23.362;2022-11-11T09:38:36;94001.69;;;9.21;93.10
10127;BME280;13080;42.608;23.362;2022-11-11T09:41:14;93992.88;;;9.40;92.50
10127;BME280;13080;42.608;23.362;2022-11-11T09:43:47;93991.28;;;9.39;91.76
10127;BME280;13080;42.608;23.362;2022-11-11T09:46:22;93986.94;;;9.43;92.69
10127;BME280;13080;42.608;23.362;2022-11-11T09:49:07;93989.25;;;9.77;90.28
10127;BME280;13080;42.608;23.362;2022-11-11T09:51:42;93979.38;;;9.91;90.21
10127;BME280;13080;42.608;23.362;2022-11-11T09:54:16;93976.50;;;10.02;89.54
10127;BME280;13080;42.608;23.362;2022-11-11T09:56:44;93979.44;;;10.28;87.86
10127;BME280;13080;42.608;23.362;2022-11-11T09:59:14;93970.66;;;10.41;87.74
10127;BME280;13080;42.608;23.362;2022-11-11T10:01:46;93966.44;;;10.63;85.37
10127;BME280;13080;42.608;23.362;2022-11-11T10:04:25;93975.50;;;10.25;86.96
10127;BME280;13080;42.608;23.362;2022-11-11T10:06:59;93972.28;;;10.01;88.08
10127;BME280;13080;42.608;23.362;2022-11-11T10:09:33;93972.06;;;9.83;88.49
10127;BME280;13080;42.608;23.362;2022-11-11T10:12:09;93960.91;;;9.95;87.67
10127;BME280;13080;42.608;23.362;2022-11-11T10:14:39;93966.34;;;10.04;87.77
10127;BME280;13080;42.608;23.362;2022-11-11T10:17:15;93964.66;;;10.08;87.74
10127;BME280;13080;42.608;23.362;2022-11-11T10:19:55;93967.19;;;10.27;86.22
10127;BME280;13080;42.608;23.362;2022-11-11T10:22:30;93971.19;;;10.29;85.81
10127;BME280;13080;42.608;23.362;2022-11-11T10:25:07;93965.81;;;10.15;84.76
10127;BME280;13080;42.608;23.362;2022-11-11T10:27:34;93971.16;;;10.43;84.28
10127;BME280;13080;42.608;23.362;2022-11-11T10:30:12;93957.03;;;10.15;84.17
10127;BME280;13080;42.608;23.362;2022-11-11T10:32:40;93963.84;;;10.35;82.69
10127;BME280;13080;42.608;23.362;2022-11-11T10:35:15;93956.94;;;10.34;81.97
10127;BME280;13080;42.608;23.362;2022-11-11T10:37:42;93955.16;;;10.15;83.44
10127;BME280;13080;42.608;23.362;2022-11-11T10:40:16;93958.72;;;10.11;83.15
10127;BME280;13080;42.608;23.362;2022-11-11T10:42:46;93954.09;;;10.03;83.70
10127;BME280;13080;42.608;23.362;2022-11-11T10:45:20;93952.59;;;10.10;82.99
10127;BME280;13080;42.608;23.362;2022-11-11T10:47:53;93960.69;;;10.19;82.55
10127;BME280;13080;42.608;23.362;2022-11-11T10:50:26;93956.47;;;10.32;83.33
10127;BME280;13080;42.608;23.362;2022-11-11T10:52:59;93957.09;;;10.51;81.70
10127;BME280;13080;42.608;23.362;2022-11-11T10:55:31;93962.47;;;10.24;82.84
10127;BME280;13080;42.608;23.362;2022-11-11T10:58:08;93950.34;;;10.31;82.89
10127;BME280;13080;42.608;23.362;2022-11-11T11:00:38;93953.56;;;10.42;82.33
10127;BME280;13080;42.608;23.362;2022-11-11T11:03:11;93950.50;;;10.21;81.88
10127;BME280;13080;42.608;23.362;2022-11-11T11:05:46;93958.22;;;10.23;81.80
10127;BME280;13080;42.608;23.362;2022-11-11T11:08:16;93951.03;;;10.09;81.08
10127;BME280;13080;42.608;23.362;2022-11-11T11:10:48;93947.66;;;10.04;81.81
10127;BME280;13080;42.608;23.362;2022-11-11T11:13:20;93943.03;;;10.09;81.33
10127;BME280;13080;42.608;23.362;2022-11-11T11:15:54;93945.38;;;10.25;81.26
10127;BME280;13080;42.608;23.362;2022-11-11T11:18:22;93940.28;;;10.51;79.40
10127;BME280;13080;42.608;23.362;2022-11-11T11:21:18;93938.16;;;10.39;79.29
10127;BME280;13080;42.608;23.362;2022-11-11T11:24:19;93929.81;;;10.54;79.35
10127;BME280;13080;42.608;23.362;2022-11-11T11:27:25;93937.56;;;10.87;77.42
10127;BME280;13080;42.608;23.362;2022-11-11T11:30:21;93929.09;;;11.08;75.78
10127;BME280;13080;42.608;23.362;2022-11-11T11:33:16;93930.66;;;11.09;75.13
10127;BME280;13080;42.608;23.362;2022-11-11T11:36:15;93930.53;;;11.14;73.91
10127;BME280;13080;42.608;23.362;2022-11-11T11:39:11;93935.13;;;11.22;73.21
10127;BME280;13080;42.608;23.362;2022-11-11T11:42:06;93929.69;;;11.05;72.47
10127;BME280;13080;42.608;23.362;2022-11-11T11:45:21;93930.03;;;11.12;72.23
10127;BME280;13080;42.608;23.362;2022-11-11T11:48:26;93915.63;;;10.90;72.79
10127;BME280;13080;42.608;23.362;2022-11-11T11:51:32;93907.66;;;10.99;72.31
10127;BME280;13080;42.608;23.362;2022-11-11T11:54:48;93916.59;;;10.72;71.31
10127;BME280;13080;42.608;23.362;2022-11-11T11:57:54;93915.28;;;10.92;70.15
10127;BME280;13080;42.608;23.362;2022-11-11T12:01:01;93926.25;;;10.81;69.71
10127;BME280;13080;42.608;23.362;2022-11-11T12:04:19;93926.88;;;10.65;69.92
10127;BME280;13080;42.608;23.362;2022-11-11T12:07:24;93933.69;;;10.48;70.93
10127;BME280;13080;42.608;23.362;2022-11-11T12:10:29;93931.28;;;10.60;70.89
10127;BME280;13080;42.608;23.362;2022-11-11T12:13:33;93919.50;;;10.61;70.99
10127;BME280;13080;42.608;23.362;2022-11-11T12:16:37;93911.84;;;10.46;72.05
10127;BME280;13080;42.608;23.362;2022-11-11T12:19:43;93911.84;;;10.69;72.14
10127;BME280;13080;42.608;23.362;2022-11-11T12:23:07;93908.34;;;10.59;71.42
10127;BME280;13080;42.608;23.362;2022-11-11T12:26:14;93904.47;;;10.66;71.58
10127;BME280;13080;42.608;23.362;2022-11-11T12:29:22;93907.97;;;10.75;70.87
10127;BME280;13080;42.608;23.362;2022-11-11T12:32:32;93904.53;;;10.74;71.54
10127;BME280;13080;42.608;23.362;2022-11-11T12:35:53;93891.75;;;10.71;70.86
10127;BME280;13080;42.608;23.362;2022-11-11T12:38:56;93895.66;;;10.43;72.11
10127;BME280;13080;42.608;23.362;2022-11-11T12:42:02;93892.88;;;10.48;71.98
10127;BME280;13080;42.608;23.362;2022-11-11T12:45:07;93894.63;;;10.52;71.55
10127;BME280;13080;42.608;23.362;2022-11-11T12:48:09;93896.31;;;10.48;71.67
10127;BME280;13080;42.608;23.362;2022-11-11T12:51:12;93891.41;;;10.42;71.71
10127;BME280;13080;42.608;23.362;2022-11-11T12:54:18;93895.81;;;10.10;73.41
10127;BME280;13080;42.608;23.362;2022-11-11T12:57:23;93893.72;;;10.20;72.90
10127;BME280;13080;42.608;23.362;2022-11-11T13:00:22;93897.28;;;10.16;73.76
10127;BME280;13080;42.608;23.362;2022-11-11T13:03:30;93894.50;;;10.21;73.48
10127;BME280;13080;42.608;23.362;2022-11-11T13:06:49;93894.97;;;10.37;73.41
10127;BME280;13080;42.608;23.362;2022-11-11T13:09:59;93899.16;;;10.29;73.06
10127;BME280;13080;42.608;23.362;2022-11-11T13:13:03;93898.94;;;10.26;73.07
10127;BME280;13080;42.608;23.362;2022-11-11T13:16:02;93902.31;;;10.17;73.68
10127;BME280;13080;42.608;23.362;2022-11-11T13:18:59;93899.94;;;10.30;72.61
10127;BME280;13080;42.608;23.362;2022-11-11T13:21:58;93907.97;;;10.16;73.40
10127;BME280;13080;42.608;23.362;2022-11-11T13:24:56;93913.22;;;10.07;73.76
10127;BME280;13080;42.608;23.362;2022-11-11T13:27:55;93902.03;;;10.05;73.76
10127;BME280;13080;42.608;23.362;2022-11-11T13:31:02;93900.69;;;9.94;74.60